sensor_id;sensor_type;location;lat;lon;timestamp;P1;durP1;ratioP1;P2;durP2;ratioP2
46090;SDS011;31826;53.572;10.170;2022-08-25T00:01:17;6.80;;;2.97;;
46090;SDS011;31826;53.572;10.170;2022-08-25T00:03:45;6.10;;;2.83;;
46090;SDS011;31826;53.572;10.170;2022-08-25T00:06:12;7.20;;;2.83;;
46090;SDS011;31826;53.572;10.170;2022-08-25T00:08:38;5.70;;;3.03;;
46090;SDS011;31826;53.572;10.170;2022-08-25T00:11:05;7.10;;;2.65;;
46090;SDS011;31826;53.572;10.170;2022-08-25T00:13:40;7.47;;;3.20;;
46090;SDS011;31826;53.572;10.170;2022-08-25T00:16:08;7.32;;;3.33;;
46090;SDS011;31826;53.572;10.170;2022-08-25T00:18:35;6.28;;;2.90;;
46090;SDS011;31826;53.572;10.170;2022-08-25T00:21:03;6.03;;;2.70;;
46090;SDS011;31826;53.572;10.170;2022-08-25T00:23:30;6.07;;;2.88;;
46090;SDS011;31826;53.572;10.170;2022-08-25T00:25:56;6.10;;;2.83;;
46090;SDS011;31826;53.572;10.170;2022-08-25T00:28:22;6.13;;;2.90;;
46090;SDS011;31826;53.572;10.170;2022-08-25T00:30:48;6.80;;;2.90;;
46090;SDS011;31826;53.572;10.170;2022-08-25T00:33:14;6.15;;;2.90;;
46090;SDS011;31826;53.572;10.170;2022-08-25T00:35:41;5.25;;;2.95;;
46090;SDS011;31826;53.572;10.170;2022-08-25T00:38:08;8.52;;;3.10;;
46090;SDS011;31826;53.572;10.170;2022-08-25T00:40:35;6.30;;;2.90;;
46090;SDS011;31826;53.572;10.170;2022-08-25T00:43:01;8.43;;;3.33;;
46090;SDS011;31826;53.572;10.170;2022-08-25T00:45:27;7.72;;;3.30;;
46090;SDS011;31826;53.572;10.170;2022-08-25T00:47:53;6.97;;;3.20;;
46090;SDS011;31826;53.572;10.170;2022-08-25T00:50:19;7.90;;;2.88;;
46090;SDS011;31826;53.572;10.170;2022-08-25T00:52:48;7.33;;;2.90;;
46090;SDS011;31826;53.572;10.170;2022-08-25T00:57:46;6.53;;;3.30;;
46090;SDS011;31826;53.572;10.170;2022-08-25T01:00:18;7.55;;;3.08;;
46090;SDS011;31826;53.572;10.170;2022-08-25T01:02:51;8.97;;;3.20;;
46090;SDS011;31826;53.572;10.170;2022-08-25T01:05:17;7.55;;;3.25;;
46090;SDS011;31826;53.572;10.170;2022-08-25T01:07:43;8.98;;;3.50;;
46090;SDS011;31826;53.572;10.170;2022-08-25T01:10:10;7.20;;;3.42;;
46090;SDS011;31826;53.572;10.170;2022-08-25T01:12:37;6.50;;;3.00;;
46090;SDS011;31826;53.572;10.170;2022-08-25T01:15:04;6.65;;;2.95;;
46090;SDS011;31826;53.572;10.170;2022-08-25T01:17:38;8.00;;;3.20;;
46090;SDS011;31826;53.572;10.170;2022-08-25T01:20:12;6.85;;;3.33;;
46090;SDS011;31826;53.572;10.170;2022-08-25T01:22:38;6.68;;;3.30;;
46090;SDS011;31826;53.572;10.170;2022-08-25T01:25:06;7.07;;;3.17;;
46090;SDS011;31826;53.572;10.170;2022-08-25T01:27:46;5.78;;;2.90;;
46090;SDS011;31826;53.572;10.170;2022-08-25T01:30:13;6.88;;;3.13;;
46090;SDS011;31826;53.572;10.170;2022-08-25T01:32:38;8.95;;;3.55;;
46090;SDS011;31826;53.572;10.170;2022-08-25T01:35:04;7.55;;;3.30;;
46090;SDS011;31826;53.572;10.170;2022-08-25T01:37:32;9.73;;;3.53;;
46090;SDS011;31826;53.572;10.170;2022-08-25T01:39:59;8.48;;;3.45;;
46090;SDS011;31826;53.572;10.170;2022-08-25T01:42:41;7.77;;;3.10;;
46090;SDS011;31826;53.572;10.170;2022-08-25T01:45:27;8.70;;;3.38;;
46090;SDS011;31826;53.572;10.170;2022-08-25T01:47:53;10.13;;;3.60;;
46090;SDS011;31826;53.572;10.170;2022-08-25T01:50:19;8.57;;;3.90;;
46090;SDS011;31826;53.572;10.170;2022-08-25T01:55:44;6.65;;;3.60;;
46090;SDS011;31826;53.572;10.170;2022-08-25T01:58:16;7.22;;;3.38;;
46090;SDS011;31826;53.572;10.170;2022-08-25T02:00:47;6.78;;;3.05;;
46090;SDS011;31826;53.572;10.170;2022-08-25T02:03:14;7.68;;;3.25;;
46090;SDS011;31826;53.572;10.170;2022-08-25T02:05:42;6.57;;;3.20;;
46090;SDS011;31826;53.572;10.170;2022-08-25T02:08:08;6.90;;;3.40;;
46090;SDS011;31826;53.572;10.170;2022-08-25T02:10:35;5.85;;;2.97;;
46090;SDS011;31826;53.572;10.170;2022-08-25T02:13:02;8.85;;;3.15;;
46090;SDS011;31826;53.572;10.170;2022-08-25T02:15:29;6.53;;;3.10;;
46090;SDS011;31826;53.572;10.170;2022-08-25T02:17:55;5.72;;;3.00;;
46090;SDS011;31826;53.572;10.170;2022-08-25T02:20:21;5.65;;;2.97;;
46090;SDS011;31826;53.572;10.170;2022-08-25T02:22:49;7.97;;;3.50;;
46090;SDS011;31826;53.572;10.170;2022-08-25T02:25:16;9.27;;;3.05;;
46090;SDS011;31826;53.572;10.170;2022-08-25T02:27:42;6.68;;;3.00;;
46090;SDS011;31826;53.572;10.170;2022-08-25T02:30:09;7.45;;;3.30;;
46090;SDS011;31826;53.572;10.170;2022-08-25T02:32:37;8.15;;;3.55;;
46090;SDS011;31826;53.572;10.170;2022-08-25T02:35:03;7.53;;;3.40;;
46090;SDS011;31826;53.572;10.170;2022-08-25T02:37:31;8.85;;;3.15;;
46090;SDS011;31826;53.572;10.170;2022-08-25T02:39:56;5.30;;;3.10;;
46090;SDS011;31826;53.572;10.170;2022-08-25T02:42:23;6.45;;;3.42;;
46090;SDS011;31826;53.572;10.170;2022-08-25T02:44:49;7.25;;;3.25;;
46090;SDS011;31826;53.572;10.170;2022-08-25T02:47:16;8.73;;;3.45;;
46090;SDS011;31826;53.572;10.170;2022-08-25T02:49:41;6.88;;;3.80;;
46090;SDS011;31826;53.572;10.170;2022-08-25T02:52:07;9.98;;;3.35;;
46090;SDS011;31826;53.572;10.170;2022-08-25T02:54:34;8.55;;;3.13;;
46090;SDS011;31826;53.572;10.170;2022-08-25T02:57:00;9.05;;;3.63;;
46090;SDS011;31826;53.572;10.170;2022-08-25T02:59:25;7.63;;;3.40;;
46090;SDS011;31826;53.572;10.170;2022-08-25T03:01:51;8.98;;;3.60;;
46090;SDS011;31826;53.572;10.170;2022-08-25T03:04:17;6.90;;;3.80;;
46090;SDS011;31826;53.572;10.170;2022-08-25T03:06:43;8.25;;;3.58;;
46090;SDS011;31826;53.572;10.170;2022-08-25T03:09:09;8.88;;;3.17;;
46090;SDS011;31826;53.572;10.170;2022-08-25T03:11:35;7.60;;;3.42;;
46090;SDS011;31826;53.572;10.170;2022-08-25T03:14:03;6.47;;;3.40;;
46090;SDS011;31826;53.572;10.170;2022-08-25T03:16:33;6.67;;;3.10;;
46090;SDS011;31826;53.572;10.170;2022-08-25T03:18:59;8.45;;;3.33;;
46090;SDS011;31826;53.572;10.170;2022-08-25T03:21:26;8.13;;;3.47;;
46090;SDS011;31826;53.572;10.170;2022-08-25T03:23:53;6.63;;;3.35;;
46090;SDS011;31826;53.572;10.170;2022-08-25T03:26:19;7.57;;;3.50;;
46090;SDS011;31826;53.572;10.170;2022-08-25T03:29:04;9.32;;;4.05;;
46090;SDS011;31826;53.572;10.170;2022-08-25T03:31:31;7.82;;;3.20;;
46090;SDS011;31826;53.572;10.170;2022-08-25T03:33:58;9.00;;;3.40;;
46090;SDS011;31826;53.572;10.170;2022-08-25T03:36:25;8.45;;;3.67;;
46090;SDS011;31826;53.572;10.170;2022-08-25T03:38:51;9.15;;;3.85;;
46090;SDS011;31826;53.572;10.170;2022-08-25T03:43:48;7.03;;;3.40;;
46090;SDS011;31826;53.572;10.170;2022-08-25T03:46:24;7.03;;;3.25;;
46090;SDS011;31826;53.572;10.170;2022-08-25T03:48:54;6.63;;;3.10;;
46090;SDS011;31826;53.572;10.170;2022-08-25T03:51:21;10.00;;;3.40;;
46090;SDS011;31826;53.572;10.170;2022-08-25T03:53:49;6.57;;;3.03;;
46090;SDS011;31826;53.572;10.170;2022-08-25T03:56:16;9.10;;;3.67;;
46090;SDS011;31826;53.572;10.170;2022-08-25T03:58:42;8.27;;;3.35;;
46090;SDS011;31826;53.572;10.170;2022-08-25T04:01:08;7.88;;;3.50;;
46090;SDS011;31826;53.572;10.170;2022-08-25T04:03:34;8.43;;;3.40;;
46090;SDS011;31826;53.572;10.170;2022-08-25T04:06:00;9.60;;;3.42;;
46090;SDS011;31826;53.572;10.170;2022-08-25T04:08:27;9.52;;;3.70;;
46090;SDS011;31826;53.572;10.170;2022-08-25T04:10:53;7.68;;;3.50;;
46090;SDS011;31826;53.572;10.170;2022-08-25T04:13:19;8.55;;;3.40;;
46090;SDS011;31826;53.572;10.170;2022-08-25T04:15:45;9.35;;;3.70;;
46090;SDS011;31826;53.572;10.170;2022-08-25T04:18:11;8.00;;;3.83;;
46090;SDS011;31826;53.572;10.170;2022-08-25T04:20:37;8.90;;;3.90;;
46090;SDS011;31826;53.572;10.170;2022-08-25T04:23:04;8.85;;;3.50;;
46090;SDS011;31826;53.572;10.170;2022-08-25T04:25:30;11.45;;;3.95;;
46090;SDS011;31826;53.572;10.170;2022-08-25T04:27:56;7.72;;;3.63;;
46090;SDS011;31826;53.572;10.170;2022-08-25T04:30:22;8.73;;;3.97;;
46090;SDS011;31826;53.572;10.170;2022-08-25T04:32:48;9.43;;;3.77;;
46090;SDS011;31826;53.572;10.170;2022-08-25T04:35:14;7.65;;;3.60;;
46090;SDS011;31826;53.572;10.170;2022-08-25T04:37:40;7.90;;;3.40;;
46090;SDS011;31826;53.572;10.170;2022-08-25T04:40:06;6.73;;;3.70;;
46090;SDS011;31826;53.572;10.170;2022-08-25T04:42:33;8.20;;;4.03;;
46090;SDS011;31826;53.572;10.170;2022-08-25T04:44:59;8.83;;;3.87;;
46090;SDS011;31826;53.572;10.170;2022-08-25T04:47:26;7.88;;;3.95;;
46090;SDS011;31826;53.572;10.170;2022-08-25T04:49:52;8.05;;;4.00;;
46090;SDS011;31826;53.572;10.170;2022-08-25T04:52:18;9.75;;;4.22;;
46090;SDS011;31826;53.572;10.170;2022-08-25T04:54:44;8.23;;;4.20;;
46090;SDS011;31826;53.572;10.170;2022-08-25T04:57:11;8.55;;;4.20;;
46090;SDS011;31826;53.572;10.170;2022-08-25T04:59:37;11.48;;;3.92;;
46090;SDS011;31826;53.572;10.170;2022-08-25T05:02:03;9.30;;;4.35;;
46090;SDS011;31826;53.572;10.170;2022-08-25T05:04:31;11.80;;;5.50;;
46090;SDS011;31826;53.572;10.170;2022-08-25T05:06:58;13.20;;;5.38;;
46090;SDS011;31826;53.572;10.170;2022-08-25T05:09:25;20.35;;;8.40;;
46090;SDS011;31826;53.572;10.170;2022-08-25T05:11:51;10.93;;;5.90;;
46090;SDS011;31826;53.572;10.170;2022-08-25T05:14:17;11.07;;;5.20;;
46090;SDS011;31826;53.572;10.170;2022-08-25T05:16:46;11.93;;;5.50;;
46090;SDS011;31826;53.572;10.170;2022-08-25T05:19:13;12.82;;;6.20;;
46090;SDS011;31826;53.572;10.170;2022-08-25T05:21:39;13.57;;;6.10;;
46090;SDS011;31826;53.572;10.170;2022-08-25T05:24:05;10.80;;;5.65;;
46090;SDS011;31826;53.572;10.170;2022-08-25T05:26:32;23.42;;;12.75;;
46090;SDS011;31826;53.572;10.170;2022-08-25T05:28:59;11.43;;;5.95;;
46090;SDS011;31826;53.572;10.170;2022-08-25T05:31:27;12.50;;;6.15;;
46090;SDS011;31826;53.572;10.170;2022-08-25T05:33:54;13.65;;;6.25;;
46090;SDS011;31826;53.572;10.170;2022-08-25T05:36:20;15.70;;;6.72;;
46090;SDS011;31826;53.572;10.170;2022-08-25T05:38:47;12.88;;;6.65;;
46090;SDS011;31826;53.572;10.170;2022-08-25T05:41:14;14.18;;;7.45;;
46090;SDS011;31826;53.572;10.170;2022-08-25T05:43:42;23.75;;;7.63;;
46090;SDS011;31826;53.572;10.170;2022-08-25T05:46:09;14.52;;;7.13;;
46090;SDS011;31826;53.572;10.170;2022-08-25T05:48:36;15.50;;;7.82;;
46090;SDS011;31826;53.572;10.170;2022-08-25T05:51:03;14.05;;;7.35;;
46090;SDS011;31826;53.572;10.170;2022-08-25T05:53:31;14.48;;;7.72;;
46090;SDS011;31826;53.572;10.170;2022-08-25T05:55:57;13.27;;;7.30;;
46090;SDS011;31826;53.572;10.170;2022-08-25T05:58:24;13.50;;;7.30;;
46090;SDS011;31826;53.572;10.170;2022-08-25T06:00:55;14.10;;;7.43;;
46090;SDS011;31826;53.572;10.170;2022-08-25T06:03:22;14.43;;;7.72;;
46090;SDS011;31826;53.572;10.170;2022-08-25T06:05:48;14.27;;;7.60;;
46090;SDS011;31826;53.572;10.170;2022-08-25T06:08:14;15.63;;;7.60;;
46090;SDS011;31826;53.572;10.170;2022-08-25T06:10:40;14.75;;;7.75;;
46090;SDS011;31826;53.572;10.170;2022-08-25T06:13:06;15.97;;;8.37;;
46090;SDS011;31826;53.572;10.170;2022-08-25T06:15:32;18.27;;;8.93;;
46090;SDS011;31826;53.572;10.170;2022-08-25T06:17:58;17.92;;;9.00;;
46090;SDS011;31826;53.572;10.170;2022-08-25T06:20:26;14.98;;;8.30;;
46090;SDS011;31826;53.572;10.170;2022-08-25T06:22:55;16.85;;;9.45;;
46090;SDS011;31826;53.572;10.170;2022-08-25T06:25:22;16.60;;;8.77;;
46090;SDS011;31826;53.572;10.170;2022-08-25T06:27:49;14.43;;;8.27;;
46090;SDS011;31826;53.572;10.170;2022-08-25T06:30:16;17.85;;;9.02;;
46090;SDS011;31826;53.572;10.170;2022-08-25T06:32:44;17.95;;;9.02;;
46090;SDS011;31826;53.572;10.170;2022-08-25T06:35:11;16.05;;;9.65;;
46090;SDS011;31826;53.572;10.170;2022-08-25T06:37:41;15.77;;;8.50;;
46090;SDS011;31826;53.572;10.170;2022-08-25T06:40:07;14.75;;;8.35;;
46090;SDS011;31826;53.572;10.170;2022-08-25T06:42:35;18.50;;;9.45;;
46090;SDS011;31826;53.572;10.170;2022-08-25T06:45:01;15.93;;;8.88;;
46090;SDS011;31826;53.572;10.170;2022-08-25T06:47:27;18.17;;;9.57;;
46090;SDS011;31826;53.572;10.170;2022-08-25T06:49:54;17.95;;;9.35;;
46090;SDS011;31826;53.572;10.170;2022-08-25T06:52:19;19.70;;;9.90;;
46090;SDS011;31826;53.572;10.170;2022-08-25T06:54:45;16.27;;;9.27;;
46090;SDS011;31826;53.572;10.170;2022-08-25T06:57:12;15.82;;;9.57;;
46090;SDS011;31826;53.572;10.170;2022-08-25T06:59:37;15.48;;;9.05;;
46090;SDS011;31826;53.572;10.170;2022-08-25T07:02:03;15.25;;;8.73;;
46090;SDS011;31826;53.572;10.170;2022-08-25T07:04:30;17.20;;;8.85;;
46090;SDS011;31826;53.572;10.170;2022-08-25T07:06:57;16.30;;;8.38;;
46090;SDS011;31826;53.572;10.170;2022-08-25T07:09:23;16.48;;;8.80;;
46090;SDS011;31826;53.572;10.170;2022-08-25T07:11:49;15.27;;;8.43;;
46090;SDS011;31826;53.572;10.170;2022-08-25T07:14:15;16.98;;;8.80;;
46090;SDS011;31826;53.572;10.170;2022-08-25T07:16:42;19.53;;;10.23;;
46090;SDS011;31826;53.572;10.170;2022-08-25T07:19:09;17.20;;;9.32;;
46090;SDS011;31826;53.572;10.170;2022-08-25T07:21:36;16.50;;;9.23;;
46090;SDS011;31826;53.572;10.170;2022-08-25T07:24:05;15.98;;;8.68;;
46090;SDS011;31826;53.572;10.170;2022-08-25T07:26:37;15.07;;;8.35;;
46090;SDS011;31826;53.572;10.170;2022-08-25T07:29:15;14.60;;;7.95;;
46090;SDS011;31826;53.572;10.170;2022-08-25T07:31:45;15.02;;;7.63;;
46090;SDS011;31826;53.572;10.170;2022-08-25T07:34:12;17.27;;;8.13;;
46090;SDS011;31826;53.572;10.170;2022-08-25T07:36:56;15.73;;;7.40;;
46090;SDS011;31826;53.572;10.170;2022-08-25T07:39:23;15.20;;;8.07;;
46090;SDS011;31826;53.572;10.170;2022-08-25T07:41:49;15.43;;;8.15;;
46090;SDS011;31826;53.572;10.170;2022-08-25T07:44:16;13.30;;;7.70;;
46090;SDS011;31826;53.572;10.170;2022-08-25T07:46:42;14.88;;;7.32;;
46090;SDS011;31826;53.572;10.170;2022-08-25T07:49:08;13.77;;;7.90;;
46090;SDS011;31826;53.572;10.170;2022-08-25T07:51:34;13.43;;;7.18;;
46090;SDS011;31826;53.572;10.170;2022-08-25T07:54:00;14.20;;;7.65;;
46090;SDS011;31826;53.572;10.170;2022-08-25T07:56:26;14.57;;;7.82;;
46090;SDS011;31826;53.572;10.170;2022-08-25T07:58:52;15.40;;;7.75;;
46090;SDS011;31826;53.572;10.170;2022-08-25T08:01:21;14.68;;;7.50;;
46090;SDS011;31826;53.572;10.170;2022-08-25T08:03:48;15.47;;;7.87;;
46090;SDS011;31826;53.572;10.170;2022-08-25T08:06:15;13.77;;;7.70;;
46090;SDS011;31826;53.572;10.170;2022-08-25T08:08:43;15.00;;;8.10;;
46090;SDS011;31826;53.572;10.170;2022-08-25T08:11:14;15.30;;;8.00;;
46090;SDS011;31826;53.572;10.170;2022-08-25T08:13:41;13.52;;;7.57;;
46090;SDS011;31826;53.572;10.170;2022-08-25T08:16:09;13.68;;;7.47;;
46090;SDS011;31826;53.572;10.170;2022-08-25T08:18:36;14.50;;;7.50;;
46090;SDS011;31826;53.572;10.170;2022-08-25T08:21:02;15.98;;;7.72;;
46090;SDS011;31826;53.572;10.170;2022-08-25T08:23:28;13.85;;;7.20;;
46090;SDS011;31826;53.572;10.170;2022-08-25T08:25:54;13.60;;;7.33;;
46090;SDS011;31826;53.572;10.170;2022-08-25T08:28:20;12.77;;;6.78;;
46090;SDS011;31826;53.572;10.170;2022-08-25T08:30:46;14.68;;;7.60;;
46090;SDS011;31826;53.572;10.170;2022-08-25T08:33:13;12.73;;;7.30;;
46090;SDS011;31826;53.572;10.170;2022-08-25T08:35:39;12.93;;;7.27;;
46090;SDS011;31826;53.572;10.170;2022-08-25T08:38:05;14.40;;;7.85;;
46090;SDS011;31826;53.572;10.170;2022-08-25T08:40:31;14.88;;;7.90;;
46090;SDS011;31826;53.572;10.170;2022-08-25T08:43:05;13.43;;;7.23;;
46090;SDS011;31826;53.572;10.170;2022-08-25T08:45:36;14.10;;;7.22;;
46090;SDS011;31826;53.572;10.170;2022-08-25T08:53:56;14.15;;;7.70;;
46090;SDS011;31826;53.572;10.170;2022-08-25T08:56:39;14.65;;;7.65;;
46090;SDS011;31826;53.572;10.170;2022-08-25T08:59:12;16.15;;;8.68;;
46090;SDS011;31826;53.572;10.170;2022-08-25T09:01:54;14.65;;;8.98;;
46090;SDS011;31826;53.572;10.170;2022-08-25T09:06:59;16.17;;;10.02;;
46090;SDS011;31826;53.572;10.170;2022-08-25T09:09:31;15.55;;;9.30;;
46090;SDS011;31826;53.572;10.170;2022-08-25T09:20:22;13.77;;;8.10;;
46090;SDS011;31826;53.572;10.170;2022-08-25T09:26:01;12.48;;;7.05;;
46090;SDS011;31826;53.572;10.170;2022-08-25T09:28:50;11.77;;;6.78;;
46090;SDS011;31826;53.572;10.170;2022-08-25T09:31:34;11.07;;;6.30;;
46090;SDS011;31826;53.572;10.170;2022-08-25T09:34:03;11.20;;;5.70;;
46090;SDS011;31826;53.572;10.170;2022-08-25T09:36:31;11.27;;;6.35;;
46090;SDS011;31826;53.572;10.170;2022-08-25T09:38:58;10.77;;;5.60;;
46090;SDS011;31826;53.572;10.170;2022-08-25T09:47:02;10.10;;;4.15;;
46090;SDS011;31826;53.572;10.170;2022-08-25T09:49:36;10.60;;;4.33;;
46090;SDS011;31826;53.572;10.170;2022-08-25T10:00:16;10.07;;;3.63;;
46090;SDS011;31826;53.572;10.170;2022-08-25T10:03:01;5.35;;;3.08;;
46090;SDS011;31826;53.572;10.170;2022-08-25T10:05:30;5.93;;;2.90;;
46090;SDS011;31826;53.572;10.170;2022-08-25T10:08:00;8.20;;;2.88;;
46090;SDS011;31826;53.572;10.170;2022-08-25T10:10:37;6.63;;;2.70;;
46090;SDS011;31826;53.572;10.170;2022-08-25T10:13:17;7.43;;;2.67;;
46090;SDS011;31826;53.572;10.170;2022-08-25T10:15:44;13.87;;;2.60;;
46090;SDS011;31826;53.572;10.170;2022-08-25T10:18:22;5.82;;;2.47;;
46090;SDS011;31826;53.572;10.170;2022-08-25T10:23:45;6.82;;;2.42;;
46090;SDS011;31826;53.572;10.170;2022-08-25T10:26:16;6.13;;;3.00;;
46090;SDS011;31826;53.572;10.170;2022-08-25T10:29:05;7.43;;;2.47;;
46090;SDS011;31826;53.572;10.170;2022-08-25T10:31:48;6.43;;;2.70;;
46090;SDS011;31826;53.572;10.170;2022-08-25T10:40:20;7.03;;;2.53;;
46090;SDS011;31826;53.572;10.170;2022-08-25T10:45:44;5.25;;;2.53;;
46090;SDS011;31826;53.572;10.170;2022-08-25T10:56:45;6.40;;;2.50;;
46090;SDS011;31826;53.572;10.170;2022-08-25T10:59:34;7.25;;;2.40;;
46090;SDS011;31826;53.572;10.170;2022-08-25T11:05:04;6.47;;;2.40;;
46090;SDS011;31826;53.572;10.170;2022-08-25T11:07:37;5.40;;;2.40;;
46090;SDS011;31826;53.572;10.170;2022-08-25T11:12:44;4.85;;;2.25;;
46090;SDS011;31826;53.572;10.170;2022-08-25T11:15:19;6.28;;;2.83;;
46090;SDS011;31826;53.572;10.170;2022-08-25T11:20:29;4.03;;;2.10;;
46090;SDS011;31826;53.572;10.170;2022-08-25T11:24:01;5.97;;;2.38;;
46090;SDS011;31826;53.572;10.170;2022-08-25T11:26:12;6.60;;;2.60;;
46090;SDS011;31826;53.572;10.170;2022-08-25T11:28:56;4.63;;;2.30;;
46090;SDS011;31826;53.572;10.170;2022-08-25T11:31:27;6.55;;;2.50;;
46090;SDS011;31826;53.572;10.170;2022-08-25T11:33:54;7.95;;;2.40;;
46090;SDS011;31826;53.572;10.170;2022-08-25T11:36:32;8.25;;;2.67;;
46090;SDS011;31826;53.572;10.170;2022-08-25T11:39:09;5.10;;;2.00;;
46090;SDS011;31826;53.572;10.170;2022-08-25T11:41:55;6.35;;;2.40;;
46090;SDS011;31826;53.572;10.170;2022-08-25T11:47:28;5.00;;;2.00;;
46090;SDS011;31826;53.572;10.170;2022-08-25T11:50:06;5.07;;;2.13;;
46090;SDS011;31826;53.572;10.170;2022-08-25T11:52:50;5.78;;;2.17;;
46090;SDS011;31826;53.572;10.170;2022-08-25T12:00:49;4.75;;;2.10;;
46090;SDS011;31826;53.572;10.170;2022-08-25T12:03:59;7.20;;;2.33;;
46090;SDS011;31826;53.572;10.170;2022-08-25T12:06:20;5.50;;;2.33;;
46090;SDS011;31826;53.572;10.170;2022-08-25T12:09:23;5.93;;;2.17;;
46090;SDS011;31826;53.572;10.170;2022-08-25T12:11:44;3.67;;;2.00;;
46090;SDS011;31826;53.572;10.170;2022-08-25T12:27:21;4.88;;;2.47;;
46090;SDS011;31826;53.572;10.170;2022-08-25T12:30:31;4.00;;;2.07;;
46090;SDS011;31826;53.572;10.170;2022-08-25T12:33:10;4.35;;;2.03;;
46090;SDS011;31826;53.572;10.170;2022-08-25T12:35:54;6.20;;;2.08;;
46090;SDS011;31826;53.572;10.170;2022-08-25T12:41:12;6.90;;;2.20;;
46090;SDS011;31826;53.572;10.170;2022-08-25T12:43:43;5.28;;;2.13;;
46090;SDS011;31826;53.572;10.170;2022-08-25T12:48:54;7.68;;;2.70;;
46090;SDS011;31826;53.572;10.170;2022-08-25T12:51:24;3.00;;;1.90;;
46090;SDS011;31826;53.572;10.170;2022-08-25T12:53:52;6.75;;;2.40;;
46090;SDS011;31826;53.572;10.170;2022-08-25T13:12:17;5.22;;;2.10;;
46090;SDS011;31826;53.572;10.170;2022-08-25T13:14:54;5.13;;;2.20;;
46090;SDS011;31826;53.572;10.170;2022-08-25T13:17:25;5.25;;;2.25;;
46090;SDS011;31826;53.572;10.170;2022-08-25T13:20:09;4.07;;;2.25;;
46090;SDS011;31826;53.572;10.170;2022-08-25T13:22:36;6.43;;;2.08;;
46090;SDS011;31826;53.572;10.170;2022-08-25T13:25:02;6.05;;;2.25;;
46090;SDS011;31826;53.572;10.170;2022-08-25T13:27:29;5.50;;;2.30;;
46090;SDS011;31826;53.572;10.170;2022-08-25T13:29:58;6.70;;;2.20;;
46090;SDS011;31826;53.572;10.170;2022-08-25T13:32:26;5.32;;;2.33;;
46090;SDS011;31826;53.572;10.170;2022-08-25T13:35:57;4.45;;;2.20;;
46090;SDS011;31826;53.572;10.170;2022-08-25T13:37:53;6.63;;;2.20;;
46090;SDS011;31826;53.572;10.170;2022-08-25T13:40:35;3.97;;;2.00;;
46090;SDS011;31826;53.572;10.170;2022-08-25T13:43:02;5.18;;;2.17;;
46090;SDS011;31826;53.572;10.170;2022-08-25T13:45:31;3.57;;;2.07;;
46090;SDS011;31826;53.572;10.170;2022-08-25T13:48:01;4.03;;;2.10;;
46090;SDS011;31826;53.572;10.170;2022-08-25T13:50:32;6.72;;;2.70;;
46090;SDS011;31826;53.572;10.170;2022-08-25T13:53:02;4.28;;;2.00;;
46090;SDS011;31826;53.572;10.170;2022-08-25T13:58:02;8.45;;;3.10;;
46090;SDS011;31826;53.572;10.170;2022-08-25T14:00:30;4.63;;;2.15;;
46090;SDS011;31826;53.572;10.170;2022-08-25T14:03:27;6.83;;;2.23;;
46090;SDS011;31826;53.572;10.170;2022-08-25T14:08:42;5.22;;;2.40;;
46090;SDS011;31826;53.572;10.170;2022-08-25T14:11:29;4.55;;;2.15;;
46090;SDS011;31826;53.572;10.170;2022-08-25T14:14:01;6.55;;;2.42;;
46090;SDS011;31826;53.572;10.170;2022-08-25T14:16:30;5.68;;;2.30;;
46090;SDS011;31826;53.572;10.170;2022-08-25T14:19:00;7.05;;;2.42;;
46090;SDS011;31826;53.572;10.170;2022-08-25T14:21:29;7.25;;;2.50;;
46090;SDS011;31826;53.572;10.170;2022-08-25T14:23:56;4.70;;;2.40;;
46090;SDS011;31826;53.572;10.170;2022-08-25T14:26:24;4.30;;;2.20;;
46090;SDS011;31826;53.572;10.170;2022-08-25T14:28:50;4.97;;;2.40;;
46090;SDS011;31826;53.572;10.170;2022-08-25T14:31:19;6.17;;;2.43;;
46090;SDS011;31826;53.572;10.170;2022-08-25T14:33:55;7.85;;;2.70;;
46090;SDS011;31826;53.572;10.170;2022-08-25T14:36:24;6.05;;;2.63;;
46090;SDS011;31826;53.572;10.170;2022-08-25T14:38:52;5.50;;;2.63;;
46090;SDS011;31826;53.572;10.170;2022-08-25T14:41:18;5.95;;;2.40;;
46090;SDS011;31826;53.572;10.170;2022-08-25T14:43:45;6.78;;;2.40;;
46090;SDS011;31826;53.572;10.170;2022-08-25T14:46:21;5.93;;;2.53;;
46090;SDS011;31826;53.572;10.170;2022-08-25T14:48:51;4.82;;;2.30;;
46090;SDS011;31826;53.572;10.170;2022-08-25T14:51:20;5.78;;;2.25;;
46090;SDS011;31826;53.572;10.170;2022-08-25T14:53:47;6.35;;;2.42;;
46090;SDS011;31826;53.572;10.170;2022-08-25T14:56:14;7.57;;;2.75;;
46090;SDS011;31826;53.572;10.170;2022-08-25T14:58:40;5.70;;;2.20;;
46090;SDS011;31826;53.572;10.170;2022-08-25T15:01:07;6.88;;;2.33;;
46090;SDS011;31826;53.572;10.170;2022-08-25T15:03:38;5.53;;;2.15;;
46090;SDS011;31826;53.572;10.170;2022-08-25T15:06:07;8.15;;;3.25;;
46090;SDS011;31826;53.572;10.170;2022-08-25T15:08:36;5.55;;;2.50;;
46090;SDS011;31826;53.572;10.170;2022-08-25T15:11:21;5.05;;;2.30;;
46090;SDS011;31826;53.572;10.170;2022-08-25T15:13:47;3.97;;;2.17;;
46090;SDS011;31826;53.572;10.170;2022-08-25T15:16:26;6.38;;;2.53;;
46090;SDS011;31826;53.572;10.170;2022-08-25T15:18:54;5.55;;;2.60;;
46090;SDS011;31826;53.572;10.170;2022-08-25T15:21:20;5.13;;;2.53;;
46090;SDS011;31826;53.572;10.170;2022-08-25T15:23:47;7.38;;;3.03;;
46090;SDS011;31826;53.572;10.170;2022-08-25T15:26:13;6.15;;;2.78;;
46090;SDS011;31826;53.572;10.170;2022-08-25T15:28:44;5.93;;;2.20;;
46090;SDS011;31826;53.572;10.170;2022-08-25T15:31:14;7.95;;;2.80;;
46090;SDS011;31826;53.572;10.170;2022-08-25T15:33:41;5.13;;;2.28;;
46090;SDS011;31826;53.572;10.170;2022-08-25T15:36:08;4.25;;;2.38;;
46090;SDS011;31826;53.572;10.170;2022-08-25T15:38:39;4.70;;;2.38;;
46090;SDS011;31826;53.572;10.170;2022-08-25T15:41:07;8.43;;;2.40;;
46090;SDS011;31826;53.572;10.170;2022-08-25T15:43:35;7.50;;;2.70;;
46090;SDS011;31826;53.572;10.170;2022-08-25T15:46:01;6.28;;;2.28;;
46090;SDS011;31826;53.572;10.170;2022-08-25T15:48:29;9.05;;;2.67;;
46090;SDS011;31826;53.572;10.170;2022-08-25T15:50:56;6.90;;;2.83;;
46090;SDS011;31826;53.572;10.170;2022-08-25T15:53:24;6.40;;;2.60;;
46090;SDS011;31826;53.572;10.170;2022-08-25T15:55:51;6.10;;;2.70;;
46090;SDS011;31826;53.572;10.170;2022-08-25T15:58:17;5.00;;;2.20;;
46090;SDS011;31826;53.572;10.170;2022-08-25T16:00:44;4.55;;;2.40;;
46090;SDS011;31826;53.572;10.170;2022-08-25T16:03:10;5.63;;;2.60;;
46090;SDS011;31826;53.572;10.170;2022-08-25T16:05:37;5.45;;;2.50;;
46090;SDS011;31826;53.572;10.170;2022-08-25T16:08:05;4.88;;;2.50;;
46090;SDS011;31826;53.572;10.170;2022-08-25T16:10:32;4.88;;;2.47;;
46090;SDS011;31826;53.572;10.170;2022-08-25T16:12:59;5.40;;;2.33;;
46090;SDS011;31826;53.572;10.170;2022-08-25T16:15:26;5.60;;;2.40;;
46090;SDS011;31826;53.572;10.170;2022-08-25T16:17:52;5.47;;;2.40;;
46090;SDS011;31826;53.572;10.170;2022-08-25T16:20:18;7.85;;;2.60;;
46090;SDS011;31826;53.572;10.170;2022-08-25T16:22:45;7.57;;;2.97;;
46090;SDS011;31826;53.572;10.170;2022-08-25T16:25:11;8.33;;;2.47;;
46090;SDS011;31826;53.572;10.170;2022-08-25T16:27:37;6.90;;;2.30;;
46090;SDS011;31826;53.572;10.170;2022-08-25T16:30:03;8.33;;;2.40;;
46090;SDS011;31826;53.572;10.170;2022-08-25T16:32:30;6.13;;;2.67;;
46090;SDS011;31826;53.572;10.170;2022-08-25T16:34:56;6.15;;;2.35;;
46090;SDS011;31826;53.572;10.170;2022-08-25T16:37:22;8.75;;;2.95;;
46090;SDS011;31826;53.572;10.170;2022-08-25T16:39:51;6.80;;;2.67;;
46090;SDS011;31826;53.572;10.170;2022-08-25T16:42:18;7.00;;;2.30;;